createdAt,value
2023-02-19T00:00:23.975Z,99833.91
2023-02-19T00:01:31.312Z,99829.66
2023-02-19T00:02:33.430Z,99824.56
2023-02-19T00:03:37.230Z,99831.41
2023-02-19T00:04:39.477Z,99829.09
2023-02-19T00:05:41.442Z,99831.66
2023-02-19T00:06:44.822Z,99834.22
2023-02-19T00:07:46.710Z,99825.81
2023-02-19T00:08:48.964Z,99826.63
2023-02-19T00:09:51.145Z,99815.75
2023-02-19T00:10:53.649Z,99822.53
2023-02-19T00:11:55.599Z,99814.88
2023-02-19T00:12:57.919Z,99827.66
2023-02-19T00:14:01.464Z,99820.97
2023-02-19T00:15:03.679Z,99826.72
2023-02-19T00:16:14.940Z,99818.41
2023-02-19T00:17:16.942Z,99820.97
2023-02-19T00:18:19.254Z,99814.72
2023-02-19T00:19:21.710Z,99819.63
2023-02-19T00:20:23.741Z,99825.59
2023-02-19T00:21:26.718Z,99821.44
2023-02-19T00:22:28.712Z,99826.47
2023-02-19T00:23:31.516Z,99821.44
2023-02-19T00:24:33.614Z,99816.25
2023-02-19T00:25:38.300Z,99812.13
2023-02-19T00:26:41.766Z,99819.22
2023-02-19T00:27:43.697Z,99812.34
2023-02-19T00:28:47.481Z,99806.34
2023-02-19T00:29:50.158Z,99814.09
2023-02-19T00:30:52.137Z,99817.44
2023-02-19T00:31:54.490Z,99810.50
2023-02-19T00:32:56.824Z,99814.09
2023-02-19T00:34:01.369Z,99815.69
2023-02-19T00:35:03.457Z,99813.94
2023-02-19T00:36:06.240Z,99823.19
2023-02-19T00:37:08.288Z,99817.28
2023-02-19T00:38:10.324Z,99815.75
2023-02-19T00:39:15.998Z,99809.16
2023-02-19T00:40:18.187Z,99815.91
2023-02-19T00:41:22.209Z,99812.19
2023-02-19T00:42:25.777Z,99818.00
2023-02-19T00:43:28.058Z,99820.50
2023-02-19T00:44:30.093Z,99811.31
2023-02-19T00:45:32.053Z,99815.94
2023-02-19T00:46:46.318Z,99815.06
2023-02-19T00:47:48.410Z,99815.06
2023-02-19T00:48:50.507Z,99815.22
2023-02-19T00:49:52.706Z,99817.28
2023-02-19T00:52:23.161Z,99817.44
2023-02-19T00:53:25.190Z,99820.00
2023-02-19T00:54:27.875Z,99814.09
2023-02-19T00:55:29.669Z,99814.81
2023-02-19T00:56:31.830Z,99814.81
2023-02-19T00:57:33.796Z,99806.91
2023-02-19T00:58:35.960Z,99809.63
2023-02-19T00:59:37.803Z,99811.31
2023-02-19T01:00:39.735Z,99813.94
2023-02-19T01:01:41.748Z,99814.97
2023-02-19T01:02:43.609Z,99809.88
2023-02-19T01:03:46.042Z,99810.75
2023-02-19T01:04:48.250Z,99811.56
2023-02-19T01:05:50.866Z,99810.75
2023-02-19T01:06:52.807Z,99814.25
2023-02-19T01:07:54.649Z,99815.13
2023-02-19T01:08:56.752Z,99816.00
2023-02-19T01:09:58.665Z,99812.75
2023-02-19T01:11:02.476Z,99807.78
2023-02-19T01:12:05.869Z,99811.47
2023-02-19T01:13:07.701Z,99803.88
2023-02-19T01:14:10.771Z,99806.56
2023-02-19T01:15:12.847Z,99809.28
2023-02-19T01:16:17.808Z,99812.63
2023-02-19T01:17:19.635Z,99806.56
2023-02-19T01:18:21.422Z,99810.09
2023-02-19T01:19:23.260Z,99805.84
2023-02-19T01:20:25.880Z,99812.63
2023-02-19T01:21:29.553Z,99809.13
2023-02-19T01:22:31.668Z,99812.53
2023-02-19T01:23:33.688Z,99804.16
2023-02-19T01:24:35.736Z,99803.22
2023-02-19T01:25:42.193Z,99807.53
2023-02-19T01:26:44.253Z,99806.72
2023-02-19T01:27:46.382Z,99806.88
2023-02-19T01:28:48.677Z,99804.47
2023-02-19T01:29:50.587Z,99804.47
2023-02-19T01:30:52.490Z,99798.66
2023-02-19T01:31:54.397Z,99797.63
2023-02-19T01:32:56.282Z,99803.34
2023-02-19T01:34:01.005Z,99798.25
2023-02-19T01:35:03.334Z,99803.06
2023-02-19T01:36:06.663Z,99792.06
2023-02-19T01:37:12.104Z,99799.72
2023-02-19T01:38:14.190Z,99801.47
2023-02-19T01:39:16.038Z,99797.94
2023-02-19T01:40:17.959Z,99801.31
2023-02-19T01:41:23.707Z,99802.91
2023-02-19T01:42:25.492Z,99803.72
2023-02-19T01:43:27.828Z,99803.72
2023-02-19T01:44:29.593Z,99805.38
2023-02-19T01:45:33.258Z,99801.25
2023-02-19T01:46:37.362Z,99798.09
2023-02-19T01:47:39.267Z,99809.13
2023-02-19T01:48:41.687Z,99802.19
2023-02-19T01:49:51.431Z,99803.88
2023-02-19T01:50:59.311Z,99800.03
2023-02-19T01:52:04.296Z,99803.34
2023-02-19T01:53:09.218Z,99801.16
2023-02-19T01:54:15.117Z,99809.00
2023-02-19T01:55:17.043Z,99801.66
2023-02-19T01:56:21.217Z,99801.28
2023-02-19T01:57:27.157Z,99804.38
2023-02-19T01:58:33.188Z,99807.09
2023-02-19T01:59:35.422Z,99807.00
2023-02-19T02:00:37.743Z,99806.28
2023-02-19T02:01:41.358Z,99811.53
2023-02-19T02:02:48.900Z,99805.41
2023-02-19T02:03:52.374Z,99811.72
2023-02-19T02:05:00.340Z,99805.16
2023-02-19T02:06:04.144Z,99811.72
2023-02-19T02:07:27.582Z,99806.75
2023-02-19T02:08:50.408Z,99805.00
2023-02-19T02:10:11.532Z,99810.59
2023-02-19T02:11:13.616Z,99802.13
2023-02-19T02:12:15.771Z,99812.19
2023-02-19T02:13:18.082Z,99807.63
2023-02-19T02:14:44.013Z,99806.75
2023-02-19T02:15:55.365Z,99810.13
2023-02-19T02:17:29.586Z,99811.22
2023-02-19T02:18:52.856Z,99804.22
2023-02-19T02:20:16.248Z,99811.06
2023-02-19T02:21:18.121Z,99809.47
2023-02-19T02:22:26.066Z,99801.91
2023-02-19T02:23:36.971Z,99803.66
2023-02-19T02:24:57.158Z,99801.19
2023-02-19T02:26:25.372Z,99795.47
2023-02-19T02:27:59.431Z,99801.91
2023-02-19T02:29:28.982Z,99797.56
2023-02-19T02:30:40.041Z,99797.25
2023-02-19T02:31:47.824Z,99797.66
2023-02-19T02:32:57.979Z,99798.41
2023-02-19T02:34:20.885Z,99800.16
2023-02-19T02:35:27.141Z,99800.69
2023-02-19T02:36:33.904Z,99794.56
2023-02-19T02:37:38.995Z,99802.28
2023-02-19T02:38:44.223Z,99799.41
2023-02-19T02:39:47.322Z,99799.81
2023-02-19T02:40:49.613Z,99805.72
2023-02-19T02:42:15.502Z,99801.41
2023-02-19T02:43:17.476Z,99802.94
2023-02-19T02:44:19.288Z,99799.19
2023-02-19T02:45:37.598Z,99797.75
2023-02-19T02:46:45.415Z,99797.09
2023-02-19T02:47:47.162Z,99795.19
2023-02-19T02:49:01.398Z,99800.78
2023-02-19T02:50:06.298Z,99800.56
2023-02-19T02:51:39.011Z,99794.22
2023-02-19T02:53:02.541Z,99794.53
2023-02-19T02:54:58.302Z,99800.56
2023-02-19T02:56:01.761Z,99803.09
2023-02-19T02:57:04.523Z,99802.03
2023-02-19T02:58:07.621Z,99801.00
2023-02-19T02:59:12.629Z,99811.06
2023-02-19T03:00:15.360Z,99800.88
2023-02-19T03:01:50.234Z,99802.44
2023-02-19T03:02:53.864Z,99799.13
2023-02-19T03:04:03.168Z,99798.09
2023-02-19T03:05:33.928Z,99800.53
2023-02-19T03:06:38.038Z,99799.03
2023-02-19T03:07:48.064Z,99797.34
2023-02-19T03:09:15.564Z,99797.34
2023-02-19T03:10:22.689Z,99791.59
2023-02-19T03:11:43.461Z,99794.16
2023-02-19T03:13:05.159Z,99789.22
2023-02-19T03:14:35.935Z,99792.75
2023-02-19T03:16:02.635Z,99788.34
2023-02-19T03:17:49.240Z,99783.25
2023-02-19T03:19:13.338Z,99787.69
2023-02-19T03:20:20.769Z,99787.97
2023-02-19T03:21:24.287Z,99790.41
2023-02-19T03:22:31.318Z,99786.03
2023-02-19T03:23:54.285Z,99785.84
2023-02-19T03:25:25.760Z,99787.78
2023-02-19T03:26:28.584Z,99784.59
2023-02-19T03:27:32.620Z,99782.06
2023-02-19T03:28:57.525Z,99781.94
2023-02-19T03:30:05.174Z,99777.59
2023-02-19T03:31:12.719Z,99784.28
2023-02-19T03:32:24.146Z,99783.56
2023-02-19T03:33:29.876Z,99785.41
2023-02-19T03:34:54.356Z,99783.00
2023-02-19T03:36:01.078Z,99779.50
2023-02-19T03:37:25.437Z,99783.00
2023-02-19T03:38:45.669Z,99785.72
2023-02-19T03:39:47.882Z,99779.88
2023-02-19T03:40:59.180Z,99783.34
2023-02-19T03:42:11.139Z,99784.09
2023-02-19T03:43:24.362Z,99786.03
2023-02-19T03:45:01.791Z,99791.06
2023-02-19T03:46:13.228Z,99781.88
2023-02-19T03:47:26.250Z,99787.13
2023-02-19T03:48:35.428Z,99775.19
2023-02-19T03:49:43.126Z,99777.69
2023-02-19T03:50:50.345Z,99775.91
2023-02-19T03:52:16.759Z,99775.13
2023-02-19T03:53:35.409Z,99772.00
2023-02-19T03:54:50.444Z,99767.03
2023-02-19T03:56:14.162Z,99767.84
2023-02-19T03:57:33.874Z,99771.81
2023-02-19T03:58:45.299Z,99767.03
2023-02-19T04:00:03.692Z,99773.19
2023-02-19T04:01:17.371Z,99769.94
2023-02-19T04:02:48.585Z,99766.41
2023-02-19T04:04:01.776Z,99771.84
2023-02-19T04:05:30.902Z,99768.41
2023-02-19T04:06:34.476Z,99767.69
2023-02-19T04:07:42.260Z,99769.59
2023-02-19T04:08:49.715Z,99766.22
2023-02-19T04:09:52.167Z,99769.75
2023-02-19T04:10:55.464Z,99766.16
2023-02-19T04:11:58.679Z,99767.03
2023-02-19T04:13:05.989Z,99763.06
2023-02-19T04:14:16.394Z,99774.13
2023-02-19T04:15:23.608Z,99770.72
2023-02-19T04:16:28.957Z,99767.34
2023-02-19T04:17:38.147Z,99767.34
2023-02-19T04:18:44.262Z,99766.53
2023-02-19T04:19:49.186Z,99760.50
2023-02-19T04:20:51.056Z,99761.44
2023-02-19T04:21:56.620Z,99761.75
2023-02-19T04:22:58.850Z,99763.81
2023-02-19T04:24:06.481Z,99764.53
2023-02-19T04:25:09.245Z,99757.53
2023-02-19T04:26:13.520Z,99763.84
2023-02-19T04:27:15.494Z,99759.53
2023-02-19T04:28:18.625Z,99755.69
2023-02-19T04:29:20.635Z,99747.88
2023-02-19T04:30:22.776Z,99751.38
2023-02-19T04:31:26.527Z,99752.19
2023-02-19T04:32:28.464Z,99756.19
2023-02-19T04:33:30.268Z,99765.28
2023-02-19T04:34:32.216Z,99766.88
2023-02-19T04:35:34.194Z,99761.53
2023-02-19T04:36:36.236Z,99772.66
2023-02-19T04:37:38.265Z,99766.00
2023-02-19T04:38:40.163Z,99769.59
2023-02-19T04:39:42.192Z,99773.88
2023-02-19T04:40:44.162Z,99765.44
2023-02-19T04:41:46.124Z,99769.91
2023-02-19T04:42:48.341Z,99767.75
2023-02-19T04:43:50.282Z,99766.84
2023-02-19T04:44:52.410Z,99774.34
2023-02-19T04:45:54.437Z,99775.47
2023-02-19T04:46:56.367Z,99772.19
2023-02-19T04:47:59.207Z,99779.84
2023-02-19T04:49:01.122Z,99778.41
2023-02-19T04:50:03.234Z,99769.06
2023-02-19T04:51:07.188Z,99774.19
2023-02-19T04:52:09.196Z,99772.41
2023-02-19T04:53:11.232Z,99771.84
2023-02-19T04:54:13.113Z,99773.31
2023-02-19T04:55:15.020Z,99774.50
2023-02-19T04:56:17.596Z,99763.56
2023-02-19T04:57:19.667Z,99778.47
2023-02-19T04:58:22.097Z,99773.97
2023-02-19T04:59:24.126Z,99779.97
2023-02-19T05:00:26.081Z,99774.13
2023-02-19T05:01:27.928Z,99776.06
2023-02-19T05:02:29.817Z,99768.69
2023-02-19T05:03:32.319Z,99768.53
2023-02-19T05:04:34.312Z,99771.53
2023-02-19T05:05:36.167Z,99774.25
2023-02-19T05:06:38.006Z,99774.41
2023-02-19T05:07:39.804Z,99774.69
2023-02-19T05:08:42.113Z,99771.53
2023-02-19T05:09:43.921Z,99773.66
2023-02-19T05:10:45.975Z,99760.78
2023-02-19T05:11:47.762Z,99772.75
2023-02-19T05:12:49.676Z,99767.47
2023-02-19T05:13:51.532Z,99768.53
2023-02-19T05:14:53.578Z,99775.69
2023-02-19T05:16:01.314Z,99781.06
2023-02-19T05:17:03.146Z,99775.81
2023-02-19T05:18:05.166Z,99777.56
2023-02-19T05:19:06.979Z,99777.84
2023-02-19T05:20:09.448Z,99769.16
2023-02-19T05:21:12.669Z,99780.34
2023-02-19T05:22:14.728Z,99781.81
2023-02-19T05:23:16.612Z,99776.94
2023-02-19T05:24:18.937Z,99775.38
2023-02-19T05:25:21.004Z,99781.53
2023-02-19T05:26:23.882Z,99783.81
2023-02-19T05:27:25.797Z,99776.38
2023-02-19T05:28:30.463Z,99776.56
2023-02-19T05:29:32.745Z,99772.00
2023-02-19T05:30:35.714Z,99774.41
2023-02-19T05:31:37.745Z,99770.88
2023-02-19T05:32:39.913Z,99772.00
2023-02-19T05:33:43.382Z,99773.72
2023-02-19T05:34:45.389Z,99766.72
2023-02-19T05:35:50.467Z,99770.16
2023-02-19T05:36:52.284Z,99767.44
2023-02-19T05:37:54.334Z,99766.59
2023-02-19T05:38:57.509Z,99775.44
2023-02-19T05:39:59.464Z,99771.41
2023-02-19T05:41:19.199Z,99769.13
2023-02-19T05:42:21.149Z,99767.81
2023-02-19T05:43:22.979Z,99762.31
2023-02-19T05:44:25.003Z,99754.94
2023-02-19T05:45:27.229Z,99749.38
2023-02-19T05:46:30.277Z,99755.75
2023-02-19T05:47:32.265Z,99748.50
2023-02-19T05:48:35.061Z,99752.34
2023-02-19T05:49:36.882Z,99744.28
2023-02-19T05:50:39.916Z,99750.34
2023-02-19T05:51:41.881Z,99746.91
2023-02-19T05:52:44.421Z,99749.66
2023-02-19T05:53:46.906Z,99749.66
2023-02-19T05:54:48.739Z,99744.81
2023-02-19T05:55:50.583Z,99744.19
2023-02-19T05:56:52.591Z,99743.59
2023-02-19T05:57:54.510Z,99734.22
2023-02-19T05:58:56.845Z,99737.88
2023-02-19T05:59:58.710Z,99742.34
2023-02-19T06:01:00.623Z,99742.22
2023-02-19T06:02:02.570Z,99736.50
2023-02-19T06:03:04.668Z,99732.38
2023-02-19T06:04:06.725Z,99744.56
2023-02-19T06:05:09.231Z,99732.53
2023-02-19T06:06:16.969Z,99742.47
2023-02-19T06:07:19.038Z,99740.34
2023-02-19T06:08:20.952Z,99742.94
2023-02-19T06:09:22.898Z,99748.47
2023-02-19T06:10:24.794Z,99754.47
2023-02-19T06:11:26.712Z,99752.44
2023-02-19T06:12:28.917Z,99757.41
2023-02-19T06:13:30.708Z,99754.34
2023-02-19T06:14:32.598Z,99756.31
2023-02-19T06:15:34.452Z,99750.94
2023-02-19T06:16:36.353Z,99762.75
2023-02-19T06:17:38.250Z,99762.31
2023-02-19T06:18:43.522Z,99752.91
2023-02-19T06:19:45.514Z,99759.41
2023-02-19T06:20:47.336Z,99766.47
2023-02-19T06:21:51.123Z,99760.19
2023-02-19T06:22:53.128Z,99762.22
2023-02-19T06:23:55.423Z,99761.31
2023-02-19T06:24:57.333Z,99758.31
2023-02-19T06:26:26.047Z,99763.72
2023-02-19T06:27:28.420Z,99752.91
2023-02-19T06:28:30.400Z,99759.34
2023-02-19T06:29:32.898Z,99764.03
2023-02-19T06:30:34.727Z,99762.53
2023-02-19T06:31:36.661Z,99766.06
2023-02-19T06:32:38.756Z,99761.25
2023-02-19T06:33:41.605Z,99763.78
2023-02-19T06:34:43.491Z,99764.72
2023-02-19T06:35:45.439Z,99768.59
2023-02-19T06:36:49.496Z,99766.34
2023-02-19T06:37:51.352Z,99757.75
2023-02-19T06:38:53.485Z,99762.31
2023-02-19T06:39:55.436Z,99758.44
2023-02-19T06:41:05.430Z,99760.94
2023-02-19T06:42:07.294Z,99761.34
2023-02-19T06:43:09.191Z,99761.97
2023-02-19T06:44:11.069Z,99761.25
2023-02-19T06:45:13.022Z,99764.72
2023-02-19T06:46:15.307Z,99753.19
2023-02-19T06:47:17.421Z,99760.72
2023-02-19T06:48:19.503Z,99754.41
2023-02-19T06:49:22.035Z,99756.50
2023-02-19T06:50:24.070Z,99758.34
2023-02-19T06:51:28.843Z,99747.59
2023-02-19T06:52:30.869Z,99753.19
2023-02-19T06:53:32.810Z,99749.09
2023-02-19T06:54:34.725Z,99750.69
2023-02-19T06:55:36.642Z,99745.66
2023-02-19T06:56:39.868Z,99752.13
2023-02-19T06:57:41.790Z,99749.09
2023-02-19T06:58:43.552Z,99752.38
2023-02-19T06:59:46.393Z,99754.06
2023-02-19T07:00:48.465Z,99766.03
2023-02-19T07:01:50.602Z,99757.50
2023-02-19T07:02:56.686Z,99762.66
2023-02-19T07:03:58.911Z,99752.66
2023-02-19T07:05:00.881Z,99755.22
2023-02-19T07:06:03.012Z,99757.50
2023-02-19T07:07:05.442Z,99752.59
2023-02-19T07:08:07.445Z,99753.47
2023-02-19T07:09:09.969Z,99749.97
2023-02-19T07:10:11.806Z,99751.84
2023-02-19T07:11:14.067Z,99742.06
2023-02-19T07:12:16.085Z,99749.81
2023-02-19T07:13:17.927Z,99744.91
2023-02-19T07:14:21.092Z,99744.81
2023-02-19T07:15:23.141Z,99747.91
2023-02-19T07:16:25.897Z,99751.63
2023-02-19T07:17:27.762Z,99744.59
2023-02-19T07:18:30.757Z,99745.50
2023-02-19T07:19:32.979Z,99746.09
2023-02-19T07:20:34.834Z,99747.91
2023-02-19T07:21:38.008Z,99739.75
2023-02-19T07:22:40.163Z,99746.97
2023-02-19T07:23:43.231Z,99745.38
2023-02-19T07:24:47.582Z,99755.75
2023-02-19T07:25:49.761Z,99741.06
2023-02-19T07:26:51.834Z,99738.50
2023-02-19T07:27:53.777Z,99745.38
2023-02-19T07:28:55.893Z,99746.47
2023-02-19T07:29:57.797Z,99746.75
2023-02-19T07:31:04.585Z,99750.22
2023-02-19T07:32:06.803Z,99746.59
2023-02-19T07:33:10.670Z,99741.75
2023-02-19T07:34:12.680Z,99744.16
2023-02-19T07:35:14.685Z,99738.19
2023-02-19T07:36:18.372Z,99746.59
2023-02-19T07:37:20.758Z,99746.31
2023-02-19T07:38:24.675Z,99747.28
2023-02-19T07:39:26.614Z,99745.00
2023-02-19T07:40:28.486Z,99748.16
2023-02-19T07:41:30.536Z,99745.75
2023-02-19T07:42:32.692Z,99745.91
2023-02-19T07:43:37.680Z,99744.97
2023-02-19T07:44:39.619Z,99740.66
2023-02-19T07:45:41.662Z,99747.78
2023-02-19T07:46:44.572Z,99738.25
2023-02-19T07:47:46.397Z,99743.63
2023-02-19T07:48:48.312Z,99741.53
2023-02-19T07:49:50.230Z,99743.22
2023-02-19T07:50:53.072Z,99743.44
2023-02-19T07:51:54.862Z,99740.13
2023-02-19T07:52:56.726Z,99736.50
2023-02-19T07:53:58.810Z,99740.66
2023-02-19T07:55:00.774Z,99746.06
2023-02-19T07:56:07.584Z,99734.81
2023-02-19T07:57:09.391Z,99743.91
2023-02-19T07:58:11.176Z,99736.25
2023-02-19T07:59:13.174Z,99745.78
2023-02-19T08:00:15.572Z,99738.59
2023-02-19T08:01:40.455Z,99737.16
2023-02-19T08:03:00.619Z,99737.72
2023-02-19T08:04:02.522Z,99739.50
2023-02-19T08:05:05.820Z,99741.59
2023-02-19T08:06:08.604Z,99732.97
2023-02-19T08:07:10.435Z,99740.19
2023-02-19T08:08:14.855Z,99732.72
2023-02-19T08:09:16.567Z,99742.84
2023-02-19T08:10:36.879Z,99737.97
2023-02-19T08:11:57.483Z,99738.47
2023-02-19T08:13:19.336Z,99738.75
2023-02-19T08:14:32.456Z,99735.06
2023-02-19T08:15:34.580Z,99724.50
2023-02-19T08:16:42.944Z,99723.91
2023-02-19T08:17:45.345Z,99726.69
2023-02-19T08:18:48.103Z,99721.22
2023-02-19T08:19:50.130Z,99718.63
2023-02-19T08:20:52.689Z,99728.03
2023-02-19T08:21:54.765Z,99734.72
2023-02-19T08:22:56.567Z,99716.22
2023-02-19T08:23:58.420Z,99730.47
2023-02-19T08:25:00.256Z,99729.78
2023-02-19T08:26:03.298Z,99720.56
2023-02-19T08:27:05.152Z,99721.47
2023-02-19T08:28:09.178Z,99708.72
2023-02-19T08:29:11.338Z,99711.53
2023-02-19T08:30:13.512Z,99726.09
2023-02-19T08:31:15.745Z,99722.34
2023-02-19T08:32:17.605Z,99719.38
2023-02-19T08:33:21.623Z,99716.28
2023-02-19T08:34:23.458Z,99708.84
2023-02-19T08:35:26.032Z,99718.00
2023-02-19T08:36:28.304Z,99713.53
2023-02-19T08:37:30.092Z,99715.84
2023-02-19T08:38:34.857Z,99725.34
2023-02-19T08:39:37.006Z,99714.97
2023-02-19T08:40:39.886Z,99715.72
2023-02-19T08:41:41.790Z,99715.34
2023-02-19T08:42:43.578Z,99714.13
2023-02-19T08:43:45.600Z,99717.78
2023-02-19T08:44:47.766Z,99712.66
2023-02-19T08:45:53.726Z,99718.59
2023-02-19T08:46:55.705Z,99717.28
2023-02-19T08:47:57.824Z,99716.34
2023-02-19T08:48:59.804Z,99710.47
2023-02-19T08:50:02.374Z,99700.66
2023-02-19T08:51:09.552Z,99706.06
2023-02-19T08:52:11.654Z,99699.78
2023-02-19T08:53:13.507Z,99702.75
2023-02-19T08:54:15.453Z,99701.28
2023-02-19T08:55:18.174Z,99695.53
2023-02-19T08:56:20.492Z,99695.75
2023-02-19T08:57:22.735Z,99700.38
2023-02-19T08:58:26.440Z,99699.72
2023-02-19T08:59:31.840Z,99698.22
2023-02-19T09:00:33.951Z,99698.44
2023-02-19T09:01:35.832Z,99699.28
2023-02-19T09:02:37.749Z,99697.50
2023-02-19T09:03:39.605Z,99688.06
2023-02-19T09:04:41.570Z,99694.28
2023-02-19T09:05:43.504Z,99696.94
2023-02-19T09:06:46.115Z,99680.69
2023-02-19T09:07:48.001Z,99688.19
2023-02-19T09:08:49.877Z,99684.91
2023-02-19T09:09:51.909Z,99682.41
2023-02-19T09:11:04.808Z,99683.81
2023-02-19T09:12:08.655Z,99675.13
2023-02-19T09:13:10.539Z,99676.72
2023-02-19T09:14:12.387Z,99678.13
2023-02-19T09:15:14.644Z,99674.19
2023-02-19T09:16:17.695Z,99673.50
2023-02-19T09:17:19.612Z,99670.16
2023-02-19T09:18:22.086Z,99672.78
2023-02-19T09:19:23.975Z,99665.81
2023-02-19T09:20:25.836Z,99669.28
2023-02-19T09:21:28.365Z,99667.66
2023-02-19T09:22:30.906Z,99674.06
2023-02-19T09:23:34.688Z,99677.94
2023-02-19T09:24:37.190Z,99666.66
2023-02-19T09:25:39.498Z,99667.09
2023-02-19T09:26:41.588Z,99665.31
2023-02-19T09:27:43.546Z,99655.97
2023-02-19T09:28:45.684Z,99659.72
2023-02-19T09:29:47.754Z,99672.03
2023-02-19T09:30:49.670Z,99663.34
2023-02-19T09:31:51.712Z,99670.22
2023-02-19T09:32:54.184Z,99657.72
2023-02-19T09:33:56.163Z,99662.84
2023-02-19T09:34:58.181Z,99667.56
2023-02-19T09:36:02.044Z,99662.09
2023-02-19T09:37:03.986Z,99667.97
2023-02-19T09:38:05.962Z,99663.56
2023-02-19T09:39:09.327Z,99661.84
2023-02-19T09:40:11.887Z,99655.88
2023-02-19T09:41:22.645Z,99666.22
2023-02-19T09:42:29.981Z,99667.31
2023-02-19T09:43:32.951Z,99666.59
2023-02-19T09:44:45.359Z,99664.44
2023-02-19T09:45:48.075Z,99665.91
2023-02-19T09:46:52.966Z,99659.47
2023-02-19T09:47:58.047Z,99664.47
2023-02-19T09:49:06.582Z,99661.13
2023-02-19T09:50:10.564Z,99662.25
2023-02-19T09:51:14.253Z,99657.06
2023-02-19T09:52:57.209Z,99655.69
2023-02-19T09:53:59.487Z,99662.75
2023-02-19T09:55:28.304Z,99651.19
2023-02-19T09:56:30.542Z,99654.66
2023-02-19T09:57:35.448Z,99652.09
2023-02-19T09:58:58.431Z,99658.47
2023-02-19T10:00:29.172Z,99655.81
2023-02-19T10:01:37.601Z,99646.72
2023-02-19T10:02:39.570Z,99647.41
2023-02-19T10:03:47.085Z,99644.91
2023-02-19T10:04:53.448Z,99647.41
2023-02-19T10:05:56.758Z,99656.69
2023-02-19T10:07:03.477Z,99649.72
2023-02-19T10:08:10.358Z,99646.31
2023-02-19T10:09:24.024Z,99653.88
2023-02-19T10:10:30.352Z,99652.31
2023-02-19T10:11:32.292Z,99649.03
2023-02-19T10:12:35.308Z,99644.00
2023-02-19T10:13:45.858Z,99643.03
2023-02-19T10:14:51.478Z,99645.88
2023-02-19T10:15:57.233Z,99655.41
2023-02-19T10:17:03.652Z,99654.75
2023-02-19T10:18:09.429Z,99654.13
2023-02-19T10:19:14.342Z,99652.34
2023-02-19T10:20:22.540Z,99648.78
2023-02-19T10:21:27.631Z,99651.22
2023-02-19T10:22:31.241Z,99657.38
2023-02-19T10:23:33.798Z,99655.69
2023-02-19T10:24:38.371Z,99653.06
2023-02-19T10:25:46.802Z,99654.72
2023-02-19T10:26:50.352Z,99653.81
2023-02-19T10:27:52.380Z,99652.16
2023-02-19T10:28:55.623Z,99657.22
2023-02-19T10:29:59.186Z,99650.28
2023-02-19T10:31:04.181Z,99652.84
2023-02-19T10:32:24.749Z,99658.84
2023-02-19T10:33:27.720Z,99660.66
2023-02-19T10:34:29.620Z,99656.44
2023-02-19T10:35:36.507Z,99655.41
2023-02-19T10:36:45.027Z,99648.13
2023-02-19T10:37:50.207Z,99655.50
2023-02-19T10:38:53.063Z,99656.44
2023-02-19T10:39:56.529Z,99653.22
2023-02-19T10:41:07.848Z,99646.28
2023-02-19T10:42:23.618Z,99650.38
2023-02-19T10:43:33.270Z,99655.41
2023-02-19T10:44:44.009Z,99658.72
2023-02-19T10:45:53.306Z,99656.34
2023-02-19T10:46:59.437Z,99656.34
2023-02-19T10:48:01.772Z,99656.56
2023-02-19T10:49:33.469Z,99656.56
2023-02-19T10:50:47.077Z,99659.03
2023-02-19T10:51:49.941Z,99656.25
2023-02-19T10:52:55.759Z,99656.44
2023-02-19T10:54:20.087Z,99657.97
2023-02-19T10:55:38.241Z,99658.91
2023-02-19T10:56:41.551Z,99662.06
2023-02-19T10:57:43.638Z,99649.34
2023-02-19T10:58:47.099Z,99656.16
2023-02-19T10:59:51.733Z,99656.84
2023-02-19T11:01:11.224Z,99662.91
2023-02-19T11:02:18.623Z,99660.41
2023-02-19T11:03:24.124Z,99654.38
2023-02-19T11:04:29.444Z,99652.75
2023-02-19T11:05:31.535Z,99659.50
2023-02-19T11:06:35.004Z,99669.03
2023-02-19T11:07:38.518Z,99661.28
2023-02-19T11:08:49.014Z,99658.75
2023-02-19T11:09:56.581Z,99663.47
2023-02-19T11:10:58.503Z,99653.41
2023-02-19T11:12:00.566Z,99657.94
2023-02-19T11:13:06.198Z,99655.59
2023-02-19T11:14:19.531Z,99651.31
2023-02-19T11:15:25.440Z,99654.81
2023-02-19T11:16:49.896Z,99643.84
2023-02-19T11:18:05.010Z,99653.31
2023-02-19T11:19:06.890Z,99651.06
2023-02-19T11:20:16.280Z,99653.34
2023-02-19T11:21:33.140Z,99646.38
2023-02-19T11:22:46.961Z,99651.53
2023-02-19T11:23:48.941Z,99646.38
2023-02-19T11:24:56.670Z,99647.34
2023-02-19T11:26:04.195Z,99649.06
2023-02-19T11:27:17.354Z,99644.69
2023-02-19T11:28:39.463Z,99651.31
2023-02-19T11:29:41.319Z,99653.91
2023-02-19T11:30:44.392Z,99649.72
2023-02-19T11:31:46.557Z,99647.91
2023-02-19T11:32:48.575Z,99649.44
2023-02-19T11:33:59.976Z,99650.44
2023-02-19T11:35:17.953Z,99654.72
2023-02-19T11:36:33.187Z,99646.88
2023-02-19T11:37:35.086Z,99646.84
2023-02-19T11:38:37.037Z,99651.00
2023-02-19T11:39:42.710Z,99644.91
2023-02-19T11:41:05.464Z,99649.97
2023-02-19T11:42:34.905Z,99651.69
2023-02-19T11:43:52.791Z,99654.28
2023-02-19T11:44:57.515Z,99655.19
2023-02-19T11:46:27.104Z,99654.28
2023-02-19T11:48:07.278Z,99644.78
2023-02-19T11:49:43.938Z,99642.38
2023-02-19T11:51:00.884Z,99644.91
2023-02-19T11:52:05.520Z,99645.88
2023-02-19T11:53:32.345Z,99639.69
2023-02-19T11:54:52.127Z,99637.22
2023-02-19T11:56:20.944Z,99640.63
2023-02-19T11:57:37.823Z,99643.88
2023-02-19T11:58:53.256Z,99644.56
2023-02-19T12:00:28.514Z,99644.47
2023-02-19T12:01:55.546Z,99631.19
2023-02-19T12:03:10.953Z,99636.34
2023-02-19T12:04:36.885Z,99638.22
2023-02-19T12:05:57.798Z,99636.13
2023-02-19T12:07:27.024Z,99645.72
2023-02-19T12:08:47.489Z,99636.22
2023-02-19T12:10:04.294Z,99641.72
2023-02-19T12:11:08.812Z,99641.56
2023-02-19T12:12:24.531Z,99639.00
2023-02-19T12:13:47.982Z,99645.22
2023-02-19T12:14:55.512Z,99635.56
2023-02-19T12:16:03.609Z,99649.19
2023-02-19T12:17:14.413Z,99633.78
2023-02-19T12:18:32.203Z,99644.16
2023-02-19T12:19:47.988Z,99643.16
2023-02-19T12:21:19.063Z,99647.13
2023-02-19T12:22:53.198Z,99636.03
2023-02-19T12:24:27.759Z,99643.50
2023-02-19T12:25:35.778Z,99640.50
2023-02-19T12:27:03.765Z,99649.78
2023-02-19T12:28:39.650Z,99646.56
2023-02-19T12:29:50.299Z,99643.88
2023-02-19T12:31:06.477Z,99646.44
2023-02-19T12:32:17.867Z,99640.50
2023-02-19T12:33:32.132Z,99654.78
2023-02-19T12:35:05.573Z,99651.34
2023-02-19T12:36:21.502Z,99647.63
2023-02-19T12:37:26.088Z,99646.31
2023-02-19T12:38:35.328Z,99650.06
2023-02-19T12:39:40.023Z,99648.38
2023-02-19T12:41:13.331Z,99653.91
2023-02-19T12:42:51.317Z,99644.28
2023-02-19T12:44:18.542Z,99653.56
2023-02-19T12:45:31.930Z,99654.31
2023-02-19T12:46:38.643Z,99656.00
2023-02-19T12:47:42.435Z,99651.81
2023-02-19T12:48:48.950Z,99654.25
2023-02-19T12:50:01.298Z,99656.47
2023-02-19T12:51:19.426Z,99652.22
2023-02-19T12:52:28.444Z,99656.47
2023-02-19T12:53:45.033Z,99653.72
2023-02-19T12:54:51.108Z,99653.91
2023-02-19T12:55:55.680Z,99655.75
2023-02-19T12:57:10.688Z,99647.13
2023-02-19T12:58:24.834Z,99650.88
2023-02-19T12:59:42.081Z,99656.03
2023-02-19T13:00:50.598Z,99662.66
2023-02-19T13:02:03.253Z,99658.56
2023-02-19T13:03:50.522Z,99661.84
2023-02-19T13:04:58.625Z,99664.22
2023-02-19T13:06:25.409Z,99648.28
2023-02-19T13:07:36.483Z,99648.97
2023-02-19T13:09:06.378Z,99647.09